首页
METAR-TAF:

METAR-TAF

机场 :

Vernal Regional Airport

Vernal, 犹他州, 美国

纬度: 40-26-39N, 经度: 109-30-42W, 海拔: 1607米

当前天气观测

该预报发布于48分钟前的23:53 UTC
风速3节,风向
温度 4°C
湿度 81%
气压 1020 hPa
能見度: 16.1公里
散云层高于5000英尺
阴天层高于7000英尺

METAR: KVEL 072353Z AUTO 09003KT 10SM SCT050 OVC070 04/01 A3011 RMK AO2 SLP199 T00440011 10056 20033 56010

时间: 17:41 (00:41 UTC)

预报

该预报发布于1小时和11分钟前的23:30 UTC
预报有效从08日的 00点(UTC)到 08日的 24点(UTC)
风速3节,风向多变
能見度: 10公里
阴天层高于5000英尺
从 08日的 0700点(UTC)
风速节,风向
能見度: 10公里
少量云层高于500英尺
阴天层高于3500英尺
附近有雾
从 08日的 1200点(UTC)
风速2节,风向多变
能見度: 3.2公里
阴天层高于1500英尺
小雪, 轻雾
从 08日的 1600点(UTC)
风速2节,风向多变
能見度: 3.2公里
阴天层高于700英尺
小雪, 轻雾
从 08日的 1800点(UTC)
风速2节,风向多变
能見度: 10公里
阴天层高于1200英尺

TAF: KVEL 072330Z 0800/0824 VRB03KT P6SM OVC050 FM080700 00000KT P6SM VCFG FEW005 OVC035 FM081200 VRB02KT 2SM -SN BR OVC015 FM081600 VRB02KT 2SM -SN BR OVC007 FM081800 VRB02KT P6SM OVC012

超过4000个机场的气象观测和天气预报(METAR&TAF报告)。

可查询的气象台以黄色和红色小点在地图上表示。

将鼠标移到小点上方,可查看气象台名称。

然后点击查看天气观测和预报。

如需切换地图:点击带黑十字的绿色按钮放大地图;点击带横线的绿色按钮缩小地图;或者点击绿色箭头查看邻近地区的地图。


METAR-TAF: